sensor_id;sensor_type;location;lat;lon;timestamp;pressure;altitude;pressure_sealevel;temperature;humidity
64298;BME280;50639;53.270;7.956;2023-04-08T00:02:19;102390.38;;;6.70;72.36
64298;BME280;50639;53.270;7.956;2023-04-08T00:04:44;102396.28;;;6.74;71.87
64298;BME280;50639;53.270;7.956;2023-04-08T00:07:10;102395.91;;;6.78;72.04
64298;BME280;50639;53.270;7.956;2023-04-08T00:09:35;102386.84;;;6.81;71.40
64298;BME280;50639;53.270;7.956;2023-04-08T00:12:01;102361.81;;;6.63;72.21
64298;BME280;50639;53.270;7.956;2023-04-08T00:14:26;102352.44;;;6.59;71.76
64298;BME280;50639;53.270;7.956;2023-04-08T00:16:52;102358.44;;;6.61;72.43
64298;BME280;50639;53.270;7.956;2023-04-08T00:19:21;102369.25;;;6.69;72.17
64298;BME280;50639;53.270;7.956;2023-04-08T00:21:49;102368.66;;;6.76;71.85
64298;BME280;50639;53.270;7.956;2023-04-08T00:24:14;102357.94;;;6.67;71.09
64298;BME280;50639;53.270;7.956;2023-04-08T00:26:47;102356.97;;;6.68;71.99
64298;BME280;50639;53.270;7.956;2023-04-08T00:29:13;102382.97;;;6.85;71.77
64298;BME280;50639;53.270;7.956;2023-04-08T00:31:44;102370.09;;;6.69;72.20
64298;BME280;50639;53.270;7.956;2023-04-08T00:34:12;102381.78;;;6.78;72.38
64298;BME280;50639;53.270;7.956;2023-04-08T00:36:40;102378.88;;;6.81;72.64
64298;BME280;50639;53.270;7.956;2023-04-08T00:39:08;102380.38;;;6.74;72.22
64298;BME280;50639;53.270;7.956;2023-04-08T00:41:34;102401.38;;;6.77;72.94
64298;BME280;50639;53.270;7.956;2023-04-08T00:44:07;102390.63;;;6.35;74.99
64298;BME280;50639;53.270;7.956;2023-04-08T00:46:37;102378.03;;;6.49;73.73
64298;BME280;50639;53.270;7.956;2023-04-08T00:49:08;102402.81;;;6.70;73.42
64298;BME280;50639;53.270;7.956;2023-04-08T00:51:34;102381.00;;;6.66;73.19
64298;BME280;50639;53.270;7.956;2023-04-08T00:54:10;102378.47;;;6.65;73.59
64298;BME280;50639;53.270;7.956;2023-04-08T00:56:35;102370.25;;;6.68;73.01
64298;BME280;50639;53.270;7.956;2023-04-08T00:59:02;102378.28;;;6.77;72.52
64298;BME280;50639;53.270;7.956;2023-04-08T01:01:45;102401.50;;;6.64;73.84
64298;BME280;50639;53.270;7.956;2023-04-08T01:07:00;102370.94;;;6.70;73.35
64298;BME280;50639;53.270;7.956;2023-04-08T01:09:32;102395.72;;;6.91;72.75
64298;BME280;50639;53.270;7.956;2023-04-08T01:12:11;102373.97;;;6.76;72.61
64298;BME280;50639;53.270;7.956;2023-04-08T01:14:42;102374.22;;;6.73;73.04
64298;BME280;50639;53.270;7.956;2023-04-08T01:17:14;102404.75;;;7.00;72.46
64298;BME280;50639;53.270;7.956;2023-04-08T01:19:48;102397.75;;;6.99;73.07
64298;BME280;50639;53.270;7.956;2023-04-08T01:23:22;102401.13;;;7.01;72.62
64298;BME280;50639;53.270;7.956;2023-04-08T01:25:26;102398.06;;;6.85;72.83
64298;BME280;50639;53.270;7.956;2023-04-08T01:27:57;102389.50;;;6.81;72.61
64298;BME280;50639;53.270;7.956;2023-04-08T01:30:24;102383.59;;;6.77;73.33
64298;BME280;50639;53.270;7.956;2023-04-08T01:32:54;102388.09;;;6.77;72.70
64298;BME280;50639;53.270;7.956;2023-04-08T01:35:21;102378.78;;;6.71;73.19
64298;BME280;50639;53.270;7.956;2023-04-08T01:37:50;102404.78;;;6.89;72.92
64298;BME280;50639;53.270;7.956;2023-04-08T01:40:28;102372.41;;;6.74;72.09
64298;BME280;50639;53.270;7.956;2023-04-08T01:42:55;102402.63;;;6.94;72.71
64298;BME280;50639;53.270;7.956;2023-04-08T01:45:29;102397.91;;;6.86;71.81
64298;BME280;50639;53.270;7.956;2023-04-08T01:47:56;102389.63;;;6.79;72.20
64298;BME280;50639;53.270;7.956;2023-04-08T01:50:23;102383.88;;;6.74;72.12
64298;BME280;50639;53.270;7.956;2023-04-08T01:52:49;102390.25;;;6.72;72.04
64298;BME280;50639;53.270;7.956;2023-04-08T01:55:19;102395.56;;;6.72;72.29
64298;BME280;50639;53.270;7.956;2023-04-08T01:58:04;102408.22;;;6.79;71.91
64298;BME280;50639;53.270;7.956;2023-04-08T02:00:33;102390.66;;;6.67;72.31
64298;BME280;50639;53.270;7.956;2023-04-08T02:03:22;102399.19;;;6.71;71.72
64298;BME280;50639;53.270;7.956;2023-04-08T02:05:53;102401.41;;;6.66;72.25
64298;BME280;50639;53.270;7.956;2023-04-08T02:08:18;102411.84;;;6.78;72.45
64298;BME280;50639;53.270;7.956;2023-04-08T02:10:44;102418.34;;;6.86;71.81
64298;BME280;50639;53.270;7.956;2023-04-08T02:13:09;102398.34;;;6.70;71.80
64298;BME280;50639;53.270;7.956;2023-04-08T02:15:41;102413.78;;;6.76;72.15
64298;BME280;50639;53.270;7.956;2023-04-08T02:18:15;102408.13;;;6.70;72.46
64298;BME280;50639;53.270;7.956;2023-04-08T02:20:47;102412.09;;;6.75;72.53
64298;BME280;50639;53.270;7.956;2023-04-08T02:23:18;102399.47;;;6.68;72.38
64298;BME280;50639;53.270;7.956;2023-04-08T02:25:47;102408.97;;;6.70;71.81
64298;BME280;50639;53.270;7.956;2023-04-08T02:28:14;102413.06;;;6.74;71.98
64298;BME280;50639;53.270;7.956;2023-04-08T02:30:43;102416.44;;;6.76;72.30
64298;BME280;50639;53.270;7.956;2023-04-08T02:33:17;102427.19;;;6.75;72.16
64298;BME280;50639;53.270;7.956;2023-04-08T02:35:44;102406.72;;;6.66;72.00
64298;BME280;50639;53.270;7.956;2023-04-08T02:38:10;102405.75;;;6.67;72.18
64298;BME280;50639;53.270;7.956;2023-04-08T02:40:38;102399.72;;;6.65;72.22
64298;BME280;50639;53.270;7.956;2023-04-08T02:43:07;102408.72;;;6.73;72.01
64298;BME280;50639;53.270;7.956;2023-04-08T02:45:57;102401.97;;;6.69;71.77
64298;BME280;50639;53.270;7.956;2023-04-08T02:48:37;102420.28;;;6.84;71.65
64298;BME280;50639;53.270;7.956;2023-04-08T02:51:03;102431.13;;;6.92;71.54
64298;BME280;50639;53.270;7.956;2023-04-08T02:53:28;102418.59;;;6.83;71.46
64298;BME280;50639;53.270;7.956;2023-04-08T02:55:57;102421.25;;;6.83;71.54
64298;BME280;50639;53.270;7.956;2023-04-08T02:58:24;102411.38;;;6.73;72.41
64298;BME280;50639;53.270;7.956;2023-04-08T03:00:50;102401.28;;;6.67;71.95
64298;BME280;50639;53.270;7.956;2023-04-08T03:03:16;102416.31;;;6.78;71.69
64298;BME280;50639;53.270;7.956;2023-04-08T03:05:41;102404.78;;;6.68;71.97
64298;BME280;50639;53.270;7.956;2023-04-08T03:08:10;102436.78;;;6.87;71.91
64298;BME280;50639;53.270;7.956;2023-04-08T03:10:38;102424.75;;;6.83;72.21
64298;BME280;50639;53.270;7.956;2023-04-08T03:13:03;102413.91;;;6.75;71.84
64298;BME280;50639;53.270;7.956;2023-04-08T03:15:29;102437.63;;;6.88;71.97
64298;BME280;50639;53.270;7.956;2023-04-08T03:17:54;102419.94;;;6.77;71.86
64298;BME280;50639;53.270;7.956;2023-04-08T03:20:20;102435.09;;;6.86;71.93
64298;BME280;50639;53.270;7.956;2023-04-08T03:22:48;102421.03;;;6.74;72.06
64298;BME280;50639;53.270;7.956;2023-04-08T03:25:24;102446.94;;;6.93;72.21
64298;BME280;50639;53.270;7.956;2023-04-08T03:27:50;102438.59;;;6.87;72.12
64298;BME280;50639;53.270;7.956;2023-04-08T03:30:17;102439.31;;;6.89;72.55
64298;BME280;50639;53.270;7.956;2023-04-08T03:32:45;102415.84;;;6.73;72.07
64298;BME280;50639;53.270;7.956;2023-04-08T03:35:14;102442.69;;;6.91;72.05
64298;BME280;50639;53.270;7.956;2023-04-08T03:37:43;102451.41;;;6.93;72.47
64298;BME280;50639;53.270;7.956;2023-04-08T03:40:11;102443.16;;;6.96;71.89
64298;BME280;50639;53.270;7.956;2023-04-08T03:42:44;102436.34;;;6.82;72.43
64298;BME280;50639;53.270;7.956;2023-04-08T03:45:13;102440.94;;;6.80;73.08
64298;BME280;50639;53.270;7.956;2023-04-08T03:47:39;102429.00;;;6.74;72.92
64298;BME280;50639;53.270;7.956;2023-04-08T03:50:05;102424.44;;;6.65;73.19
64298;BME280;50639;53.270;7.956;2023-04-08T03:52:31;102445.72;;;6.86;73.41
64298;BME280;50639;53.270;7.956;2023-04-08T03:54:57;102419.97;;;6.66;74.60
64298;BME280;50639;53.270;7.956;2023-04-08T03:57:22;102419.66;;;6.59;74.09
64298;BME280;50639;53.270;7.956;2023-04-08T03:59:57;102402.78;;;6.49;74.85
64298;BME280;50639;53.270;7.956;2023-04-08T04:02:23;102432.44;;;6.54;75.60
64298;BME280;50639;53.270;7.956;2023-04-08T04:04:51;102436.75;;;6.66;74.76
64298;BME280;50639;53.270;7.956;2023-04-08T04:07:17;102400.59;;;6.54;74.71
64298;BME280;50639;53.270;7.956;2023-04-08T04:09:42;102425.03;;;6.69;75.01
64298;BME280;50639;53.270;7.956;2023-04-08T04:12:08;102425.03;;;6.69;74.41
64298;BME280;50639;53.270;7.956;2023-04-08T04:14:33;102436.50;;;6.69;75.32
64298;BME280;50639;53.270;7.956;2023-04-08T04:17:01;102422.25;;;6.70;74.18
64298;BME280;50639;53.270;7.956;2023-04-08T04:19:30;102427.19;;;6.75;75.03
64298;BME280;50639;53.270;7.956;2023-04-08T04:22:06;102431.78;;;6.73;74.83
64298;BME280;50639;53.270;7.956;2023-04-08T04:24:31;102426.88;;;6.68;74.94
64298;BME280;50639;53.270;7.956;2023-04-08T04:26:59;102427.06;;;6.76;74.52
64298;BME280;50639;53.270;7.956;2023-04-08T04:29:24;102434.53;;;6.83;74.43
64298;BME280;50639;53.270;7.956;2023-04-08T04:31:52;102436.69;;;6.77;74.48
64298;BME280;50639;53.270;7.956;2023-04-08T04:34:23;102434.53;;;6.83;74.33
64298;BME280;50639;53.270;7.956;2023-04-08T04:36:48;102440.28;;;6.88;74.40
64298;BME280;50639;53.270;7.956;2023-04-08T04:39:14;102452.81;;;6.97;73.99
64298;BME280;50639;53.270;7.956;2023-04-08T04:41:42;102440.88;;;6.91;74.13
64298;BME280;50639;53.270;7.956;2023-04-08T04:44:08;102439.84;;;6.83;74.34
64298;BME280;50639;53.270;7.956;2023-04-08T04:46:36;102438.22;;;6.91;74.34
64298;BME280;50639;53.270;7.956;2023-04-08T04:49:07;102466.31;;;7.05;73.73
64298;BME280;50639;53.270;7.956;2023-04-08T04:51:32;102443.97;;;6.75;74.40
64298;BME280;50639;53.270;7.956;2023-04-08T04:53:58;102440.59;;;6.73;75.10
64298;BME280;50639;53.270;7.956;2023-04-08T04:56:26;102442.72;;;6.79;74.53
64298;BME280;50639;53.270;7.956;2023-04-08T04:58:54;102446.34;;;6.78;74.67
64298;BME280;50639;53.270;7.956;2023-04-08T05:01:22;102440.47;;;6.75;74.07
64298;BME280;50639;53.270;7.956;2023-04-08T05:03:53;102439.78;;;6.62;74.75
64298;BME280;50639;53.270;7.956;2023-04-08T05:06:22;102474.72;;;6.78;74.91
64298;BME280;50639;53.270;7.956;2023-04-08T05:08:47;102480.25;;;6.86;75.36
64298;BME280;50639;53.270;7.956;2023-04-08T05:11:23;102483.19;;;6.83;74.71
64298;BME280;50639;53.270;7.956;2023-04-08T05:13:48;102461.72;;;6.75;74.96
64298;BME280;50639;53.270;7.956;2023-04-08T05:16:14;102490.28;;;6.94;74.10
64298;BME280;50639;53.270;7.956;2023-04-08T05:18:41;102453.88;;;6.73;74.34
64298;BME280;50639;53.270;7.956;2023-04-08T05:21:11;102481.59;;;6.92;74.71
64298;BME280;50639;53.270;7.956;2023-04-08T05:23:39;102456.53;;;6.73;74.48
64298;BME280;50639;53.270;7.956;2023-04-08T05:26:07;102486.03;;;6.91;74.90
64298;BME280;50639;53.270;7.956;2023-04-08T05:28:36;102452.19;;;6.72;74.56
64298;BME280;50639;53.270;7.956;2023-04-08T05:31:04;102456.28;;;6.76;74.54
64298;BME280;50639;53.270;7.956;2023-04-08T05:33:37;102470.13;;;6.37;76.77
64298;BME280;50639;53.270;7.956;2023-04-08T05:36:03;102477.94;;;6.50;76.26
64298;BME280;50639;53.270;7.956;2023-04-08T05:38:37;102483.38;;;6.59;76.03
64298;BME280;50639;53.270;7.956;2023-04-08T05:41:03;102470.66;;;6.74;75.46
64298;BME280;50639;53.270;7.956;2023-04-08T05:43:34;102505.94;;;6.97;75.07
64298;BME280;50639;53.270;7.956;2023-04-08T05:46:05;102477.59;;;6.86;74.37
64298;BME280;50639;53.270;7.956;2023-04-08T05:48:42;102490.50;;;6.91;75.16
64298;BME280;50639;53.270;7.956;2023-04-08T05:51:12;102479.28;;;6.87;75.03
64298;BME280;50639;53.270;7.956;2023-04-08T05:53:46;102491.44;;;7.01;74.32
64298;BME280;50639;53.270;7.956;2023-04-08T05:56:11;102497.44;;;7.14;74.59
64298;BME280;50639;53.270;7.956;2023-04-08T05:58:39;102490.06;;;7.17;73.71
64298;BME280;50639;53.270;7.956;2023-04-08T06:01:05;102486.31;;;7.20;74.32
64298;BME280;50639;53.270;7.956;2023-04-08T06:03:41;102486.75;;;7.25;73.72
64298;BME280;50639;53.270;7.956;2023-04-08T06:06:10;102524.00;;;7.46;73.36
64298;BME280;50639;53.270;7.956;2023-04-08T06:08:38;102510.44;;;7.28;74.24
64298;BME280;50639;53.270;7.956;2023-04-08T06:11:04;102531.06;;;7.36;74.06
64298;BME280;50639;53.270;7.956;2023-04-08T06:13:31;102528.19;;;7.48;73.44
64298;BME280;50639;53.270;7.956;2023-04-08T06:15:57;102537.75;;;7.51;73.58
64298;BME280;50639;53.270;7.956;2023-04-08T06:18:23;102528.84;;;7.20;74.47
64298;BME280;50639;53.270;7.956;2023-04-08T06:20:48;102540.13;;;6.90;76.15
64298;BME280;50639;53.270;7.956;2023-04-08T06:23:15;102534.16;;;7.20;75.21
64298;BME280;50639;53.270;7.956;2023-04-08T06:25:40;102543.56;;;7.13;75.21
64298;BME280;50639;53.270;7.956;2023-04-08T06:28:06;102546.19;;;7.24;75.27
64298;BME280;50639;53.270;7.956;2023-04-08T06:30:31;102541.44;;;7.60;73.92
64298;BME280;50639;53.270;7.956;2023-04-08T06:32:57;102538.59;;;7.51;73.98
64298;BME280;50639;53.270;7.956;2023-04-08T06:35:22;102539.66;;;7.28;74.15
64298;BME280;50639;53.270;7.956;2023-04-08T06:37:48;102548.94;;;7.02;75.96
64298;BME280;50639;53.270;7.956;2023-04-08T06:40:13;102548.44;;;6.97;75.81
64298;BME280;50639;53.270;7.956;2023-04-08T06:42:39;102547.97;;;7.03;76.86
64298;BME280;50639;53.270;7.956;2023-04-08T06:45:18;102547.94;;;7.46;74.93
64298;BME280;50639;53.270;7.956;2023-04-08T06:47:43;102553.50;;;7.43;74.47
64298;BME280;50639;53.270;7.956;2023-04-08T06:50:09;102549.22;;;7.51;74.36
64298;BME280;50639;53.270;7.956;2023-04-08T06:52:34;102546.88;;;7.58;74.68
64298;BME280;50639;53.270;7.956;2023-04-08T06:55:00;102549.44;;;7.80;73.80
64298;BME280;50639;53.270;7.956;2023-04-08T06:57:26;102555.47;;;8.03;73.30
64298;BME280;50639;53.270;7.956;2023-04-08T06:59:51;102546.97;;;7.88;72.94
64298;BME280;50639;53.270;7.956;2023-04-08T07:02:18;102554.78;;;7.48;74.88
64298;BME280;50639;53.270;7.956;2023-04-08T07:04:43;102553.66;;;7.30;76.09
64298;BME280;50639;53.270;7.956;2023-04-08T07:07:09;102551.38;;;7.57;74.93
64298;BME280;50639;53.270;7.956;2023-04-08T07:09:34;102562.16;;;7.77;74.06
64298;BME280;50639;53.270;7.956;2023-04-08T07:12:02;102568.28;;;7.56;75.13
64298;BME280;50639;53.270;7.956;2023-04-08T07:14:28;102563.84;;;7.78;75.01
64298;BME280;50639;53.270;7.956;2023-04-08T07:16:54;102563.19;;;8.06;74.35
64298;BME280;50639;53.270;7.956;2023-04-08T07:19:20;102558.78;;;7.54;76.01
64298;BME280;50639;53.270;7.956;2023-04-08T07:21:47;102561.44;;;7.96;74.60
64298;BME280;50639;53.270;7.956;2023-04-08T07:24:12;102570.31;;;8.26;73.85
64298;BME280;50639;53.270;7.956;2023-04-08T07:26:38;102568.59;;;8.46;72.69
64298;BME280;50639;53.270;7.956;2023-04-08T07:29:03;102570.25;;;8.38;72.15
64298;BME280;50639;53.270;7.956;2023-04-08T07:31:29;102568.88;;;8.43;72.60
64298;BME280;50639;53.270;7.956;2023-04-08T07:33:54;102573.66;;;8.49;72.54
64298;BME280;50639;53.270;7.956;2023-04-08T07:36:20;102568.81;;;7.92;73.64
64298;BME280;50639;53.270;7.956;2023-04-08T07:38:46;102572.50;;;7.91;74.17
64298;BME280;50639;53.270;7.956;2023-04-08T07:41:11;102584.22;;;7.88;74.49
64298;BME280;50639;53.270;7.956;2023-04-08T07:43:37;102576.69;;;8.35;73.06
64298;BME280;50639;53.270;7.956;2023-04-08T07:46:04;102579.84;;;8.50;72.57
64298;BME280;50639;53.270;7.956;2023-04-08T07:48:30;102575.78;;;8.55;71.88
64298;BME280;50639;53.270;7.956;2023-04-08T07:50:56;102582.59;;;8.39;71.70
64298;BME280;50639;53.270;7.956;2023-04-08T07:53:22;102586.56;;;7.82;74.09
64298;BME280;50639;53.270;7.956;2023-04-08T07:55:49;102587.81;;;8.29;72.80
64298;BME280;50639;53.270;7.956;2023-04-08T07:58:14;102593.09;;;8.40;72.02
64298;BME280;50639;53.270;7.956;2023-04-08T08:00:40;102581.28;;;8.63;71.66
64298;BME280;50639;53.270;7.956;2023-04-08T08:03:05;102580.09;;;8.77;71.66
64298;BME280;50639;53.270;7.956;2023-04-08T08:05:31;102591.28;;;8.81;71.11
64298;BME280;50639;53.270;7.956;2023-04-08T08:07:56;102598.59;;;8.79;71.19
64298;BME280;50639;53.270;7.956;2023-04-08T08:10:21;102597.47;;;8.81;71.13
64298;BME280;50639;53.270;7.956;2023-04-08T08:12:47;102594.97;;;8.89;70.50
64298;BME280;50639;53.270;7.956;2023-04-08T08:15:12;102602.78;;;8.81;70.67
64298;BME280;50639;53.270;7.956;2023-04-08T08:17:39;102605.47;;;8.81;71.15
64298;BME280;50639;53.270;7.956;2023-04-08T08:20:05;102605.19;;;8.84;71.05
64298;BME280;50639;53.270;7.956;2023-04-08T08:22:31;102601.47;;;8.66;71.84
64298;BME280;50639;53.270;7.956;2023-04-08T08:24:56;102603.34;;;8.45;72.00
64298;BME280;50639;53.270;7.956;2023-04-08T08:27:22;102594.63;;;8.73;71.87
64298;BME280;50639;53.270;7.956;2023-04-08T08:29:48;102603.56;;;9.02;70.58
64298;BME280;50639;53.270;7.956;2023-04-08T08:32:14;102601.81;;;9.22;69.64
64298;BME280;50639;53.270;7.956;2023-04-08T08:34:39;102607.78;;;8.95;70.04
64298;BME280;50639;53.270;7.956;2023-04-08T08:37:05;102607.94;;;9.03;69.75
64298;BME280;50639;53.270;7.956;2023-04-08T08:39:30;102604.09;;;8.87;71.26
64298;BME280;50639;53.270;7.956;2023-04-08T08:41:56;102612.69;;;9.10;69.72
64298;BME280;50639;53.270;7.956;2023-04-08T08:44:22;102615.16;;;9.32;69.57
64298;BME280;50639;53.270;7.956;2023-04-08T08:46:48;102617.78;;;8.42;72.05
64298;BME280;50639;53.270;7.956;2023-04-08T08:49:13;102626.66;;;7.90;73.75
64298;BME280;50639;53.270;7.956;2023-04-08T08:51:39;102619.00;;;7.97;74.00
64298;BME280;50639;53.270;7.956;2023-04-08T08:54:06;102625.19;;;8.18;73.46
64298;BME280;50639;53.270;7.956;2023-04-08T08:56:32;102624.78;;;8.02;73.59
64298;BME280;50639;53.270;7.956;2023-04-08T08:58:59;102631.38;;;7.86;73.93
64298;BME280;50639;53.270;7.956;2023-04-08T09:01:32;102637.59;;;7.76;74.27
64298;BME280;50639;53.270;7.956;2023-04-08T09:04:17;102635.41;;;7.81;74.43
64298;BME280;50639;53.270;7.956;2023-04-08T09:06:47;102636.47;;;7.89;73.87
64298;BME280;50639;53.270;7.956;2023-04-08T09:09:14;102644.28;;;7.70;75.16
64298;BME280;50639;53.270;7.956;2023-04-08T09:11:41;102637.38;;;8.20;73.52
64298;BME280;50639;53.270;7.956;2023-04-08T09:14:24;102630.88;;;8.85;71.39
64298;BME280;50639;53.270;7.956;2023-04-08T09:16:50;102632.91;;;9.12;70.21
64298;BME280;50639;53.270;7.956;2023-04-08T09:19:16;102633.81;;;9.32;69.66
64298;BME280;50639;53.270;7.956;2023-04-08T09:21:41;102647.16;;;9.51;69.26
64298;BME280;50639;53.270;7.956;2023-04-08T09:24:08;102633.13;;;9.68;67.96
64298;BME280;50639;53.270;7.956;2023-04-08T09:26:35;102637.34;;;9.80;67.72
64298;BME280;50639;53.270;7.956;2023-04-08T09:29:06;102635.94;;;9.76;66.76
64298;BME280;50639;53.270;7.956;2023-04-08T09:31:37;102634.28;;;9.75;66.44
64298;BME280;50639;53.270;7.956;2023-04-08T09:34:16;102627.78;;;9.97;66.30
64298;BME280;50639;53.270;7.956;2023-04-08T09:36:46;102640.28;;;9.68;67.04
64298;BME280;50639;53.270;7.956;2023-04-08T09:39:13;102639.56;;;9.95;66.76
64298;BME280;50639;53.270;7.956;2023-04-08T09:41:39;102640.72;;;10.02;67.17
64298;BME280;50639;53.270;7.956;2023-04-08T09:44:07;102637.59;;;10.16;65.86
64298;BME280;50639;53.270;7.956;2023-04-08T09:47:17;102647.16;;;10.38;65.51
64298;BME280;50639;53.270;7.956;2023-04-08T09:49:54;102649.63;;;10.49;64.99
64298;BME280;50639;53.270;7.956;2023-04-08T09:52:38;102657.59;;;9.93;65.30
64298;BME280;50639;53.270;7.956;2023-04-08T09:55:12;102660.38;;;9.72;67.17
64298;BME280;50639;53.270;7.956;2023-04-08T09:57:54;102648.03;;;9.90;66.59
64298;BME280;50639;53.270;7.956;2023-04-08T10:00:35;102654.06;;;9.73;66.03
64298;BME280;50639;53.270;7.956;2023-04-08T10:03:20;102654.19;;;9.62;66.06
64298;BME280;50639;53.270;7.956;2023-04-08T10:05:52;102645.34;;;9.90;66.36
64298;BME280;50639;53.270;7.956;2023-04-08T10:08:18;102646.88;;;10.31;65.91
64298;BME280;50639;53.270;7.956;2023-04-08T10:10:44;102649.03;;;10.65;64.39
64298;BME280;50639;53.270;7.956;2023-04-08T10:13:10;102645.00;;;10.88;64.09
64298;BME280;50639;53.270;7.956;2023-04-08T10:15:37;102648.44;;;11.08;63.12
64298;BME280;50639;53.270;7.956;2023-04-08T10:25:34;102648.22;;;10.64;63.59
64298;BME280;50639;53.270;7.956;2023-04-08T10:28:01;102645.53;;;11.19;63.65
64298;BME280;50639;53.270;7.956;2023-04-08T10:30:47;102650.19;;;11.62;61.56
64298;BME280;50639;53.270;7.956;2023-04-08T10:33:17;102643.28;;;11.87;60.30
64298;BME280;50639;53.270;7.956;2023-04-08T10:35:47;102638.22;;;11.84;60.39
64298;BME280;50639;53.270;7.956;2023-04-08T10:38:14;102638.34;;;12.00;60.61
64298;BME280;50639;53.270;7.956;2023-04-08T10:40:41;102645.34;;;12.19;58.99
64298;BME280;50639;53.270;7.956;2023-04-08T10:43:12;102645.72;;;12.24;59.30
64298;BME280;50639;53.270;7.956;2023-04-08T10:45:38;102639.69;;;12.22;58.99
64298;BME280;50639;53.270;7.956;2023-04-08T10:48:12;102640.69;;;12.21;58.29
64298;BME280;50639;53.270;7.956;2023-04-08T10:50:39;102638.56;;;12.32;58.68
64298;BME280;50639;53.270;7.956;2023-04-08T10:53:05;102638.13;;;12.37;58.39
64298;BME280;50639;53.270;7.956;2023-04-08T10:55:32;102645.41;;;12.27;57.81
64298;BME280;50639;53.270;7.956;2023-04-08T10:58:06;102646.28;;;11.56;59.75
64298;BME280;50639;53.270;7.956;2023-04-08T11:00:37;102645.38;;;12.01;60.49
64298;BME280;50639;53.270;7.956;2023-04-08T11:03:05;102656.75;;;12.21;59.27
64298;BME280;50639;53.270;7.956;2023-04-08T11:05:33;102652.88;;;12.41;58.51
64298;BME280;50639;53.270;7.956;2023-04-08T11:08:01;102640.69;;;12.47;58.09
64298;BME280;50639;53.270;7.956;2023-04-08T11:10:27;102641.72;;;12.54;58.39
64298;BME280;50639;53.270;7.956;2023-04-08T11:12:54;102647.44;;;12.59;58.47
64298;BME280;50639;53.270;7.956;2023-04-08T11:15:23;102644.66;;;12.68;58.25
64298;BME280;50639;53.270;7.956;2023-04-08T11:17:50;102646.25;;;12.87;57.58
64298;BME280;50639;53.270;7.956;2023-04-08T11:20:17;102650.88;;;13.11;57.34
64298;BME280;50639;53.270;7.956;2023-04-08T11:22:44;102648.03;;;13.12;57.29
64298;BME280;50639;53.270;7.956;2023-04-08T11:25:10;102655.66;;;12.83;57.43
64298;BME280;50639;53.270;7.956;2023-04-08T11:27:38;102650.75;;;12.78;57.53
64298;BME280;50639;53.270;7.956;2023-04-08T11:30:07;102648.59;;;12.82;57.70
64298;BME280;50639;53.270;7.956;2023-04-08T11:32:34;102639.91;;;12.88;57.37
64298;BME280;50639;53.270;7.956;2023-04-08T11:35:05;102641.22;;;12.84;57.60
64298;BME280;50639;53.270;7.956;2023-04-08T11:37:37;102651.19;;;12.66;58.23
64298;BME280;50639;53.270;7.956;2023-04-08T11:40:08;102652.50;;;12.62;58.85
64298;BME280;50639;53.270;7.956;2023-04-08T11:42:33;102655.81;;;12.81;57.93
64298;BME280;50639;53.270;7.956;2023-04-08T11:44:59;102645.78;;;12.92;57.80
64298;BME280;50639;53.270;7.956;2023-04-08T11:47:32;102659.63;;;12.79;58.22
64298;BME280;50639;53.270;7.956;2023-04-08T11:49:59;102653.59;;;12.51;58.58
64298;BME280;50639;53.270;7.956;2023-04-08T11:52:46;102654.16;;;12.89;57.92
64298;BME280;50639;53.270;7.956;2023-04-08T11:55:22;102660.94;;;13.01;57.90
64298;BME280;50639;53.270;7.956;2023-04-08T11:57:47;102652.16;;;12.91;58.26
64298;BME280;50639;53.270;7.956;2023-04-08T12:00:15;102657.38;;;12.92;57.81
64298;BME280;50639;53.270;7.956;2023-04-08T12:02:41;102662.81;;;12.74;58.72
64298;BME280;50639;53.270;7.956;2023-04-08T12:05:07;102665.72;;;12.89;58.45
64298;BME280;50639;53.270;7.956;2023-04-08T12:07:32;102663.75;;;12.99;58.19
64298;BME280;50639;53.270;7.956;2023-04-08T12:09:58;102660.75;;;13.02;58.21
64298;BME280;50639;53.270;7.956;2023-04-08T12:12:24;102663.28;;;13.12;57.40
64298;BME280;50639;53.270;7.956;2023-04-08T12:14:49;102659.00;;;12.85;58.32
64298;BME280;50639;53.270;7.956;2023-04-08T12:17:16;102661.50;;;12.87;58.09
64298;BME280;50639;53.270;7.956;2023-04-08T12:19:41;102659.44;;;13.06;57.61
64298;BME280;50639;53.270;7.956;2023-04-08T12:22:07;102659.78;;;13.11;57.96
64298;BME280;50639;53.270;7.956;2023-04-08T12:24:32;102653.41;;;13.12;57.26
64298;BME280;50639;53.270;7.956;2023-04-08T12:26:58;102653.69;;;13.27;57.34
64298;BME280;50639;53.270;7.956;2023-04-08T12:29:23;102653.16;;;13.24;57.34
64298;BME280;50639;53.270;7.956;2023-04-08T12:31:49;102655.16;;;13.30;57.04
64298;BME280;50639;53.270;7.956;2023-04-08T12:34:14;102652.31;;;13.31;56.68
64298;BME280;50639;53.270;7.956;2023-04-08T12:36:41;102652.66;;;13.28;56.79
64298;BME280;50639;53.270;7.956;2023-04-08T12:39:08;102654.41;;;13.45;57.02
64298;BME280;50639;53.270;7.956;2023-04-08T12:41:34;102651.41;;;13.81;56.40
64298;BME280;50639;53.270;7.956;2023-04-08T12:43:59;102651.44;;;13.97;55.95
64298;BME280;50639;53.270;7.956;2023-04-08T12:46:25;102654.06;;;13.06;57.28
64298;BME280;50639;53.270;7.956;2023-04-08T12:48:51;102649.78;;;12.88;58.67
64298;BME280;50639;53.270;7.956;2023-04-08T12:51:16;102653.56;;;13.45;57.70
64298;BME280;50639;53.270;7.956;2023-04-08T12:53:42;102648.19;;;13.53;56.44
64298;BME280;50639;53.270;7.956;2023-04-08T12:56:07;102647.72;;;13.74;56.76
64298;BME280;50639;53.270;7.956;2023-04-08T12:58:33;102641.69;;;13.96;55.86
64298;BME280;50639;53.270;7.956;2023-04-08T13:00:59;102645.38;;;13.95;55.24
64298;BME280;50639;53.270;7.956;2023-04-08T13:03:24;102652.44;;;13.72;56.03
64298;BME280;50639;53.270;7.956;2023-04-08T13:05:51;102649.59;;;13.98;56.01
64298;BME280;50639;53.270;7.956;2023-04-08T13:08:16;102643.53;;;14.12;55.43
64298;BME280;50639;53.270;7.956;2023-04-08T13:10:42;102648.69;;;14.38;54.71
64298;BME280;50639;53.270;7.956;2023-04-08T13:13:07;102651.91;;;14.57;54.81
64298;BME280;50639;53.270;7.956;2023-04-08T13:15:33;102645.81;;;14.63;53.50